Time;durP1;ratioP1;P1;durP2;ratioP2;P2;SDS_P1;SDS_P2;PMS_P1;PMS_P2;Temp;Humidity;BMP_temperature;BMP_pressure;BME280_temperature;BME280_humidity;BME280_pressure;Samples;Min_cycle;Max_cycle;Signal;HPM_P1;HPM_P2
2022/01/10 00:00:32;;;;;;;6.18;5.22;;;;;;;;;;5122937;27;20194;-57
2022/01/10 00:03:00;;;;;;;6.85;5.55;;;;;;;;;;5140529;27;20600;-58
2022/01/10 00:05:27;;;;;;;6.43;5.75;;;;;;;;;;5140280;27;20218;-57
2022/01/10 00:07:55;;;;;;;5.93;5.05;;;;;;;;;;5139454;27;20222;-58
2022/01/10 00:10:23;;;;;;;6.47;5.13;;;;;;;;;;5140069;27;20229;-58
2022/01/10 00:12:51;;;;;;;5.15;4.60;;;;;;;;;;5140355;27;20206;-57
2022/01/10 00:15:18;;;;;;;6.05;5.05;;;;;;;;;;5137510;27;20577;-57
2022/01/10 00:17:46;;;;;;;5.63;5.03;;;;;;;;;;5139801;27;20199;-57
2022/01/10 00:20:14;;;;;;;6.35;5.00;;;;;;;;;;5139070;27;20217;-57
2022/01/10 00:22:45;;;;;;;5.93;4.63;;;;;;;;;;5139797;27;20491;-58
2022/01/10 00:25:13;;;;;;;5.45;4.70;;;;;;;;;;5122178;27;20212;-57
2022/01/10 00:27:43;;;;;;;5.63;4.15;;;;;;;;;;5119081;28;20506;-58
2022/01/10 00:30:10;;;;;;;4.47;4.07;;;;;;;;;;5128167;27;20198;-58
2022/01/10 00:32:38;;;;;;;5.32;4.25;;;;;;;;;;5139894;27;20538;-58
2022/01/10 00:35:07;;;;;;;4.90;3.97;;;;;;;;;;5130442;27;20199;-59
2022/01/10 00:37:35;;;;;;;5.07;4.18;;;;;;;;;;5120045;27;20501;-59
2022/01/10 00:40:02;;;;;;;3.90;3.50;;;;;;;;;;5134197;27;20199;-59
2022/01/10 00:42:30;;;;;;;4.70;3.40;;;;;;;;;;5119012;28;20203;-59
2022/01/10 00:45:01;;;;;;;5.28;4.00;;;;;;;;;;5118869;28;20227;-59
2022/01/10 00:47:29;;;;;;;5.20;3.60;;;;;;;;;;5118489;27;20674;-58
2022/01/10 00:49:56;;;;;;;4.93;3.70;;;;;;;;;;5119658;27;20199;-58
2022/01/10 00:52:24;;;;;;;5.43;3.97;;;;;;;;;;5118626;27;20198;-59
2022/01/10 00:54:51;;;;;;;4.47;3.40;;;;;;;;;;5126497;27;20485;-60
2022/01/10 00:57:18;;;;;;;3.13;2.83;;;;;;;;;;5139212;27;20205;-58
2022/01/10 00:59:46;;;;;;;3.38;3.03;;;;;;;;;;5138817;27;20198;-59
2022/01/10 01:02:15;;;;;;;4.22;3.33;;;;;;;;;;5139145;27;20203;-59
2022/01/10 01:04:42;;;;;;;3.53;3.20;;;;;;;;;;5137508;27;20206;-59
2022/01/10 01:07:10;;;;;;;4.07;3.13;;;;;;;;;;5137958;27;20217;-59
2022/01/10 01:09:39;;;;;;;3.33;2.85;;;;;;;;;;5132981;27;20660;-58
2022/01/10 01:12:11;;;;;;;3.17;2.88;;;;;;;;;;5132265;27;20229;-58
2022/01/10 01:14:57;;;;;;;3.67;3.30;;;;;;;;;;5137538;27;20707;-59
2022/01/10 01:17:46;;;;;;;3.60;2.65;;;;;;;;;;5138661;27;20232;-59
2022/01/10 01:25:49;;;;;;;3.65;2.65;;;;;;;;;;5134828;27;20588;-59
2022/01/10 01:28:17;;;;;;;3.03;2.72;;;;;;;;;;5133656;27;20239;-59
2022/01/10 01:30:45;;;;;;;3.63;2.67;;;;;;;;;;5136464;27;20198;-59
2022/01/10 01:33:15;;;;;;;2.80;2.50;;;;;;;;;;5135749;27;20247;-59
2022/01/10 01:35:43;;;;;;;2.75;2.47;;;;;;;;;;5136744;27;20194;-59
2022/01/10 01:38:10;;;;;;;2.83;2.42;;;;;;;;;;5136975;27;20190;-59
2022/01/10 01:40:43;;;;;;;2.88;2.40;;;;;;;;;;5132741;27;20272;-59
2022/01/10 01:43:11;;;;;;;2.65;2.25;;;;;;;;;;5130636;27;20210;-60
2022/01/10 01:45:40;;;;;;;2.78;2.22;;;;;;;;;;5137010;27;20205;-59
2022/01/10 01:48:07;;;;;;;2.97;2.50;;;;;;;;;;5137270;27;20257;-59
2022/01/10 01:50:36;;;;;;;2.55;2.20;;;;;;;;;;5132330;27;20207;-59
2022/01/10 01:53:04;;;;;;;2.22;2.03;;;;;;;;;;5133810;27;20209;-59
2022/01/10 01:55:31;;;;;;;2.10;1.90;;;;;;;;;;5129272;27;21108;-59
2022/01/10 01:57:59;;;;;;;2.20;2.00;;;;;;;;;;5134969;27;20284;-59
2022/01/10 02:00:27;;;;;;;2.20;2.00;;;;;;;;;;5136230;27;20225;-59
2022/01/10 02:02:55;;;;;;;2.78;1.90;;;;;;;;;;5137050;27;20202;-59
2022/01/10 02:05:23;;;;;;;2.30;2.10;;;;;;;;;;5136438;27;20494;-59
2022/01/10 02:07:51;;;;;;;2.13;1.98;;;;;;;;;;5136946;27;20232;-59
2022/01/10 02:10:19;;;;;;;2.08;1.88;;;;;;;;;;5137860;27;20205;-59
2022/01/10 02:12:46;;;;;;;2.67;2.15;;;;;;;;;;5136738;27;20285;-58
2022/01/10 02:15:26;;;;;;;1.98;1.70;;;;;;;;;;5137221;27;20202;-59
2022/01/10 02:17:59;;;;;;;2.38;2.00;;;;;;;;;;5135200;27;20228;-59
2022/01/10 02:20:29;;;;;;;1.85;1.70;;;;;;;;;;5133387;27;20206;-59
2022/01/10 02:22:56;;;;;;;1.90;1.70;;;;;;;;;;5137158;27;20217;-60
2022/01/10 02:25:24;;;;;;;1.85;1.70;;;;;;;;;;5126206;27;20195;-59
2022/01/10 02:27:51;;;;;;;1.80;1.70;;;;;;;;;;5135737;27;20226;-59
2022/01/10 02:30:18;;;;;;;1.85;1.75;;;;;;;;;;5132713;27;20198;-59
2022/01/10 02:32:46;;;;;;;1.90;1.70;;;;;;;;;;5130607;28;20510;-58
2022/01/10 02:35:20;;;;;;;1.75;1.65;;;;;;;;;;5136448;28;20213;-58
2022/01/10 02:37:51;;;;;;;1.98;1.77;;;;;;;;;;5136341;28;20711;-59
2022/01/10 02:40:20;;;;;;;1.60;1.50;;;;;;;;;;5137139;28;20194;-57
2022/01/10 02:42:48;;;;;;;1.50;1.40;;;;;;;;;;5134704;28;20195;-57
2022/01/10 02:45:15;;;;;;;1.52;1.42;;;;;;;;;;5134139;28;20198;-57
2022/01/10 02:47:43;;;;;;;2.17;1.70;;;;;;;;;;5121202;28;20614;-59
2022/01/10 02:50:10;;;;;;;2.05;1.70;;;;;;;;;;5137048;27;20198;-60
2022/01/10 02:52:38;;;;;;;2.00;1.80;;;;;;;;;;5135893;27;20206;-58
2022/01/10 02:55:09;;;;;;;1.42;1.33;;;;;;;;;;5137839;27;20206;-58
2022/01/10 02:57:36;;;;;;;1.73;1.63;;;;;;;;;;5136593;27;20194;-59
2022/01/10 03:00:06;;;;;;;1.60;1.48;;;;;;;;;;5139864;27;20205;-57
2022/01/10 03:02:34;;;;;;;1.80;1.70;;;;;;;;;;5141119;27;20199;-58
2022/01/10 03:05:02;;;;;;;1.60;1.40;;;;;;;;;;5141175;27;20701;-59
2022/01/10 03:07:29;;;;;;;1.67;1.40;;;;;;;;;;5141197;27;20222;-59
2022/01/10 03:09:57;;;;;;;1.70;1.60;;;;;;;;;;5141132;27;20230;-59
2022/01/10 03:12:25;;;;;;;1.40;1.30;;;;;;;;;;5140903;27;20194;-59
2022/01/10 03:14:53;;;;;;;1.52;1.42;;;;;;;;;;5141661;27;20202;-59
2022/01/10 03:17:20;;;;;;;1.50;1.40;;;;;;;;;;5139799;27;20507;-58
2022/01/10 03:19:48;;;;;;;1.48;1.38;;;;;;;;;;5140656;27;20230;-59
2022/01/10 03:22:15;;;;;;;1.65;1.50;;;;;;;;;;5140857;27;20194;-58
2022/01/10 03:24:42;;;;;;;1.52;1.42;;;;;;;;;;5141210;27;20195;-58
2022/01/10 03:27:10;;;;;;;1.65;1.40;;;;;;;;;;5141226;27;20198;-59
2022/01/10 03:29:39;;;;;;;1.65;1.40;;;;;;;;;;5140410;27;20213;-59
2022/01/10 03:32:07;;;;;;;1.40;1.30;;;;;;;;;;5140100;27;20243;-59
2022/01/10 03:34:35;;;;;;;1.58;1.33;;;;;;;;;;5140734;27;20582;-59
2022/01/10 03:37:03;;;;;;;1.35;1.25;;;;;;;;;;5139852;27;20511;-59
2022/01/10 03:39:30;;;;;;;1.52;1.23;;;;;;;;;;5141376;27;20210;-59
2022/01/10 03:41:57;;;;;;;1.35;1.25;;;;;;;;;;5140251;27;20194;-59
2022/01/10 03:44:25;;;;;;;1.40;1.30;;;;;;;;;;5140870;27;20213;-58
2022/01/10 03:46:56;;;;;;;1.67;1.10;;;;;;;;;;5139658;27;20221;-59
2022/01/10 03:49:23;;;;;;;1.33;1.23;;;;;;;;;;5139614;27;20214;-58
2022/01/10 03:51:50;;;;;;;1.30;1.20;;;;;;;;;;5140263;27;20202;-59
2022/01/10 03:54:18;;;;;;;1.45;1.30;;;;;;;;;;5141223;27;20536;-58
2022/01/10 03:56:47;;;;;;;1.85;1.17;;;;;;;;;;5140063;27;20198;-58
2022/01/10 03:59:14;;;;;;;1.40;1.30;;;;;;;;;;5140072;27;20194;-58
2022/01/10 04:01:42;;;;;;;1.20;1.10;;;;;;;;;;5139880;27;20198;-59
2022/01/10 04:04:10;;;;;;;1.80;1.20;;;;;;;;;;5138240;27;20198;-59
2022/01/10 04:06:38;;;;;;;1.52;1.17;;;;;;;;;;5139969;27;20198;-59
2022/01/10 04:09:05;;;;;;;1.63;1.17;;;;;;;;;;5128546;27;20231;-58
2022/01/10 04:11:33;;;;;;;1.33;1.20;;;;;;;;;;5118705;28;20199;-60
2022/01/10 04:14:00;;;;;;;1.40;1.30;;;;;;;;;;5120053;28;20195;-58
2022/01/10 04:16:27;;;;;;;1.98;1.17;;;;;;;;;;5119969;28;20206;-58
2022/01/10 04:18:55;;;;;;;1.23;1.13;;;;;;;;;;5120117;28;20207;-59
2022/01/10 04:21:23;;;;;;;1.90;1.17;;;;;;;;;;5119857;28;20199;-59
2022/01/10 04:23:51;;;;;;;1.15;1.00;;;;;;;;;;5119456;28;20207;-59
2022/01/10 04:26:18;;;;;;;1.80;1.10;;;;;;;;;;5119864;28;20195;-58
2022/01/10 04:28:46;;;;;;;1.35;1.10;;;;;;;;;;5119610;28;20223;-59
2022/01/10 04:31:13;;;;;;;1.30;1.20;;;;;;;;;;5119744;28;20206;-58
2022/01/10 04:33:41;;;;;;;1.95;1.10;;;;;;;;;;5118937;28;20210;-59
2022/01/10 04:36:08;;;;;;;1.17;1.00;;;;;;;;;;5119229;28;20519;-59
2022/01/10 04:38:37;;;;;;;1.67;1.10;;;;;;;;;;5119060;28;20206;-59
2022/01/10 04:41:05;;;;;;;1.10;1.00;;;;;;;;;;5119197;28;20547;-59
2022/01/10 04:43:34;;;;;;;1.45;1.20;;;;;;;;;;5118887;28;20214;-59
2022/01/10 04:46:02;;;;;;;1.38;1.25;;;;;;;;;;5119401;28;20199;-59
2022/01/10 04:48:29;;;;;;;1.10;1.00;;;;;;;;;;5119241;28;20254;-58
2022/01/10 04:51:12;;;;;;;1.30;1.20;;;;;;;;;;5118572;28;20198;-59
2022/01/10 04:53:41;;;;;;;1.20;1.10;;;;;;;;;;5119011;28;20289;-58
2022/01/10 04:56:09;;;;;;;1.08;0.98;;;;;;;;;;5116748;28;20203;-59
2022/01/10 04:58:37;;;;;;;1.23;1.00;;;;;;;;;;5118986;28;20234;-59
2022/01/10 05:01:04;;;;;;;1.25;1.08;;;;;;;;;;5118663;28;20231;-59
2022/01/10 05:03:32;;;;;;;1.13;1.00;;;;;;;;;;5118259;28;20194;-58
2022/01/10 05:05:59;;;;;;;1.05;0.90;;;;;;;;;;5117995;28;20217;-58
2022/01/10 05:08:27;;;;;;;1.10;0.90;;;;;;;;;;5117430;28;20249;-59
2022/01/10 05:10:56;;;;;;;1.10;1.00;;;;;;;;;;5118149;28;20210;-58
2022/01/10 05:13:23;;;;;;;1.08;0.98;;;;;;;;;;5118148;28;20198;-58
2022/01/10 05:15:51;;;;;;;1.20;1.00;;;;;;;;;;5118076;28;20206;-58
2022/01/10 05:18:19;;;;;;;0.90;0.90;;;;;;;;;;5118266;28;20210;-59
2022/01/10 05:20:46;;;;;;;1.20;1.10;;;;;;;;;;5117720;28;20249;-59
2022/01/10 05:23:14;;;;;;;1.10;1.02;;;;;;;;;;5117865;28;20203;-58
2022/01/10 05:25:41;;;;;;;1.92;1.10;;;;;;;;;;5118096;28;20703;-59
2022/01/10 05:28:11;;;;;;;1.30;1.05;;;;;;;;;;5118143;28;20237;-59
2022/01/10 05:30:39;;;;;;;1.10;1.00;;;;;;;;;;5117837;28;20500;-59
2022/01/10 05:33:07;;;;;;;1.10;1.00;;;;;;;;;;5118190;28;20214;-59
2022/01/10 05:35:35;;;;;;;1.13;1.02;;;;;;;;;;5117605;28;20305;-58
2022/01/10 05:38:03;;;;;;;1.20;1.10;;;;;;;;;;5116830;28;20195;-59
2022/01/10 05:40:33;;;;;;;1.10;1.00;;;;;;;;;;5116315;28;20194;-59
2022/01/10 05:43:08;;;;;;;0.80;0.80;;;;;;;;;;5117158;28;20207;-59
2022/01/10 05:45:38;;;;;;;1.17;1.00;;;;;;;;;;5117199;28;20202;-59
2022/01/10 05:48:11;;;;;;;1.10;1.00;;;;;;;;;;5114487;28;20211;-59
2022/01/10 05:50:42;;;;;;;1.20;1.10;;;;;;;;;;5116225;28;20292;-59
2022/01/10 05:53:10;;;;;;;0.95;0.80;;;;;;;;;;5116221;28;20555;-59
2022/01/10 05:55:37;;;;;;;1.10;1.00;;;;;;;;;;5116173;28;20199;-59
2022/01/10 05:58:05;;;;;;;0.73;0.73;;;;;;;;;;5115707;28;20214;-59
2022/01/10 06:00:33;;;;;;;1.20;1.10;;;;;;;;;;5115136;28;20202;-59
2022/01/10 06:03:01;;;;;;;1.10;0.88;;;;;;;;;;5115930;28;20203;-59
2022/01/10 06:05:31;;;;;;;1.13;0.90;;;;;;;;;;5115587;28;20230;-58
2022/01/10 06:07:59;;;;;;;1.08;0.95;;;;;;;;;;5117208;27;20228;-58
2022/01/10 06:10:26;;;;;;;1.23;1.13;;;;;;;;;;5135589;27;20254;-58
2022/01/10 06:12:54;;;;;;;0.90;0.90;;;;;;;;;;5136195;27;20593;-58
2022/01/10 06:15:21;;;;;;;1.10;0.90;;;;;;;;;;5135062;27;20210;-58
2022/01/10 06:17:48;;;;;;;1.00;0.88;;;;;;;;;;5134281;27;20206;-58
2022/01/10 06:20:18;;;;;;;1.10;1.00;;;;;;;;;;5136004;27;20209;-58
2022/01/10 06:22:46;;;;;;;1.40;1.00;;;;;;;;;;5133946;27;20202;-59
2022/01/10 06:25:15;;;;;;;1.20;1.10;;;;;;;;;;5134822;27;20194;-59
2022/01/10 06:27:42;;;;;;;0.95;0.90;;;;;;;;;;5135138;27;20209;-59
2022/01/10 06:30:10;;;;;;;1.00;0.93;;;;;;;;;;5134965;27;20252;-59
2022/01/10 06:32:37;;;;;;;0.90;0.90;;;;;;;;;;5135077;28;20202;-59
2022/01/10 06:35:05;;;;;;;0.95;0.95;;;;;;;;;;5134556;27;20607;-58
2022/01/10 06:37:34;;;;;;;1.17;1.08;;;;;;;;;;5132130;28;20256;-59
2022/01/10 06:40:01;;;;;;;0.95;0.80;;;;;;;;;;5134580;28;20194;-58
2022/01/10 06:42:28;;;;;;;1.17;1.10;;;;;;;;;;5132876;28;20605;-58
2022/01/10 06:44:56;;;;;;;1.15;1.08;;;;;;;;;;5135071;28;20202;-58
2022/01/10 06:47:23;;;;;;;1.02;0.93;;;;;;;;;;5117458;28;20198;-58
2022/01/10 06:49:50;;;;;;;1.05;1.00;;;;;;;;;;5135975;27;20226;-59
2022/01/10 06:52:18;;;;;;;1.08;1.00;;;;;;;;;;5134706;28;20589;-58
2022/01/10 06:54:47;;;;;;;0.95;0.95;;;;;;;;;;5133918;28;20203;-58
2022/01/10 06:57:14;;;;;;;1.42;1.10;;;;;;;;;;5134846;28;20206;-58
2022/01/10 06:59:41;;;;;;;1.30;1.20;;;;;;;;;;5136214;28;20499;-58
2022/01/10 07:02:10;;;;;;;0.98;0.98;;;;;;;;;;5134704;28;20190;-58
2022/01/10 07:04:37;;;;;;;1.13;1.02;;;;;;;;;;5135038;28;20221;-59
2022/01/10 07:07:05;;;;;;;1.20;1.00;;;;;;;;;;5135205;28;20199;-59
2022/01/10 07:09:33;;;;;;;1.20;1.10;;;;;;;;;;5134217;28;20226;-59
2022/01/10 07:12:02;;;;;;;1.20;1.10;;;;;;;;;;5134912;28;20496;-58
2022/01/10 07:14:32;;;;;;;0.90;0.90;;;;;;;;;;5134561;28;20199;-59
2022/01/10 07:16:59;;;;;;;1.10;1.00;;;;;;;;;;5133853;28;20200;-59
2022/01/10 07:19:27;;;;;;;1.08;1.02;;;;;;;;;;5135033;27;20198;-59
2022/01/10 07:21:54;;;;;;;1.17;1.08;;;;;;;;;;5134468;27;20209;-58
2022/01/10 07:24:22;;;;;;;1.02;0.90;;;;;;;;;;5136012;27;20574;-58
2022/01/10 07:26:49;;;;;;;1.05;0.90;;;;;;;;;;5135705;28;20203;-59
2022/01/10 07:29:19;;;;;;;0.90;0.90;;;;;;;;;;5118508;28;20520;-58
2022/01/10 07:31:48;;;;;;;0.80;0.80;;;;;;;;;;5135354;27;20202;-58
2022/01/10 07:34:15;;;;;;;1.20;1.10;;;;;;;;;;5136285;27;20558;-59
2022/01/10 07:36:43;;;;;;;1.27;1.15;;;;;;;;;;5135566;28;20519;-59
2022/01/10 07:39:11;;;;;;;1.25;1.15;;;;;;;;;;5134314;28;20623;-59
2022/01/10 07:41:38;;;;;;;0.90;0.90;;;;;;;;;;5134908;28;20324;-59
2022/01/10 07:44:06;;;;;;;1.50;0.98;;;;;;;;;;5134473;28;20198;-59
2022/01/10 07:46:35;;;;;;;1.00;1.00;;;;;;;;;;5135788;27;20210;-59
2022/01/10 07:49:03;;;;;;;1.02;0.93;;;;;;;;;;5139284;27;20229;-59
2022/01/10 07:51:30;;;;;;;0.98;0.98;;;;;;;;;;5137541;27;20203;-58
2022/01/10 07:53:59;;;;;;;1.10;1.00;;;;;;;;;;5138408;27;20216;-58
2022/01/10 07:56:26;;;;;;;1.10;1.00;;;;;;;;;;5138242;27;20281;-59
2022/01/10 07:58:54;;;;;;;1.10;1.00;;;;;;;;;;5138310;27;20671;-59
2022/01/10 08:01:21;;;;;;;1.00;0.93;;;;;;;;;;5138348;27;20225;-59
2022/01/10 08:03:50;;;;;;;1.23;1.08;;;;;;;;;;5117934;28;20203;-59
2022/01/10 08:06:18;;;;;;;1.13;1.02;;;;;;;;;;5125994;27;20217;-59
2022/01/10 08:08:45;;;;;;;1.02;1.00;;;;;;;;;;5137910;27;20241;-59
2022/01/10 08:11:12;;;;;;;1.30;1.20;;;;;;;;;;5138302;27;20198;-59
2022/01/10 08:13:41;;;;;;;1.10;1.00;;;;;;;;;;5138586;27;20202;-59
2022/01/10 08:16:08;;;;;;;0.90;0.90;;;;;;;;;;5135977;27;20279;-59
2022/01/10 08:18:35;;;;;;;1.02;0.95;;;;;;;;;;5136747;27;20194;-59
2022/01/10 08:21:06;;;;;;;1.17;1.10;;;;;;;;;;5137873;27;20198;-59
2022/01/10 08:23:34;;;;;;;1.67;1.10;;;;;;;;;;5137234;27;20199;-59
2022/01/10 08:26:03;;;;;;;1.23;1.13;;;;;;;;;;5137830;27;20198;-59
2022/01/10 08:28:30;;;;;;;1.20;1.10;;;;;;;;;;5138521;27;20202;-59
2022/01/10 08:30:58;;;;;;;1.05;1.02;;;;;;;;;;5138842;27;20205;-59
2022/01/10 08:33:25;;;;;;;1.20;1.10;;;;;;;;;;5137853;27;20206;-59
2022/01/10 08:35:53;;;;;;;1.20;1.10;;;;;;;;;;5137973;27;20205;-59
2022/01/10 08:38:22;;;;;;;1.27;1.17;;;;;;;;;;5136642;27;20205;-59
2022/01/10 08:40:50;;;;;;;1.27;1.17;;;;;;;;;;5137418;27;20205;-60
2022/01/10 08:43:17;;;;;;;1.27;1.10;;;;;;;;;;5138047;27;20485;-59
2022/01/10 08:45:45;;;;;;;1.30;1.20;;;;;;;;;;5135580;27;20318;-59
2022/01/10 08:48:12;;;;;;;1.27;1.17;;;;;;;;;;5137852;27;20190;-58
2022/01/10 08:50:40;;;;;;;1.48;1.38;;;;;;;;;;5137633;27;20229;-58
2022/01/10 08:53:08;;;;;;;1.20;0.98;;;;;;;;;;5137257;27;20289;-59
2022/01/10 08:55:37;;;;;;;1.42;1.30;;;;;;;;;;5137111;27;20202;-59
2022/01/10 08:58:05;;;;;;;2.05;1.20;;;;;;;;;;5126276;27;20199;-59
2022/01/10 09:00:32;;;;;;;1.40;1.30;;;;;;;;;;5134629;27;20221;-59
2022/01/10 09:03:01;;;;;;;2.88;1.40;;;;;;;;;;5136798;27;20233;-59
2022/01/10 09:05:29;;;;;;;1.40;1.30;;;;;;;;;;5135816;27;20191;-60
2022/01/10 09:07:58;;;;;;;1.45;1.20;;;;;;;;;;5117825;27;20202;-59
2022/01/10 09:10:26;;;;;;;2.33;1.25;;;;;;;;;;5137148;27;20218;-58
2022/01/10 09:12:55;;;;;;;1.58;1.30;;;;;;;;;;5136665;27;20601;-58
2022/01/10 09:15:23;;;;;;;1.50;1.40;;;;;;;;;;5136661;27;20202;-58
2022/01/10 09:17:50;;;;;;;2.47;1.42;;;;;;;;;;5132989;27;20203;-58
2022/01/10 09:20:17;;;;;;;1.40;1.30;;;;;;;;;;5128333;27;20194;-59
2022/01/10 09:22:45;;;;;;;2.30;1.40;;;;;;;;;;5136420;27;20195;-58
2022/01/10 09:25:12;;;;;;;2.17;1.70;;;;;;;;;;5137150;27;20503;-58
2022/01/10 09:27:40;;;;;;;1.50;1.30;;;;;;;;;;5136410;27;20209;-58
2022/01/10 09:30:10;;;;;;;1.40;1.27;;;;;;;;;;5136952;27;20278;-58
2022/01/10 09:32:37;;;;;;;1.55;1.27;;;;;;;;;;5135237;27;20198;-59
2022/01/10 09:35:04;;;;;;;2.15;1.48;;;;;;;;;;5135869;27;20198;-59
2022/01/10 09:37:32;;;;;;;1.58;1.40;;;;;;;;;;5136094;27;20293;-58
2022/01/10 09:39:59;;;;;;;2.72;1.40;;;;;;;;;;5136352;27;20213;-58
2022/01/10 09:42:26;;;;;;;1.50;1.20;;;;;;;;;;5135542;27;20198;-58
2022/01/10 09:44:54;;;;;;;2.60;1.48;;;;;;;;;;5135521;27;20209;-58
2022/01/10 09:47:23;;;;;;;2.05;1.33;;;;;;;;;;5135441;27;20205;-58
2022/01/10 09:49:50;;;;;;;2.63;1.40;;;;;;;;;;5135265;27;20225;-58
2022/01/10 09:52:18;;;;;;;1.55;1.33;;;;;;;;;;5135533;27;20190;-58
2022/01/10 09:54:45;;;;;;;1.80;1.50;;;;;;;;;;5135625;27;20198;-58
2022/01/10 09:57:12;;;;;;;1.85;1.40;;;;;;;;;;5134924;27;20215;-58
2022/01/10 09:59:41;;;;;;;2.40;1.50;;;;;;;;;;5135526;27;20191;-58
2022/01/10 10:02:08;;;;;;;1.63;1.52;;;;;;;;;;5135031;27;20194;-58
2022/01/10 10:04:38;;;;;;;3.35;1.65;;;;;;;;;;5135115;27;20198;-58
2022/01/10 10:07:06;;;;;;;2.13;1.33;;;;;;;;;;5135252;27;20198;-58
2022/01/10 10:09:34;;;;;;;2.38;1.73;;;;;;;;;;5118616;27;20327;-58
2022/01/10 10:12:03;;;;;;;1.50;1.40;;;;;;;;;;5114889;28;20225;-58
2022/01/10 10:14:30;;;;;;;2.03;1.48;;;;;;;;;;5115027;28;20195;-59
2022/01/10 10:17:06;;;;;;;2.25;1.90;;;;;;;;;;5115043;28;20190;-59
2022/01/10 10:19:33;;;;;;;1.40;1.30;;;;;;;;;;5115182;28;20190;-58
2022/01/10 10:22:02;;;;;;;1.98;1.67;;;;;;;;;;5114576;28;20199;-58
2022/01/10 10:24:30;;;;;;;2.03;1.55;;;;;;;;;;5115062;28;20482;-58
2022/01/10 10:26:57;;;;;;;1.50;1.40;;;;;;;;;;5115258;28;20222;-58
2022/01/10 10:29:25;;;;;;;2.17;1.50;;;;;;;;;;5114908;28;20207;-58
2022/01/10 10:31:54;;;;;;;1.60;1.50;;;;;;;;;;5114413;28;20306;-58
2022/01/10 10:34:22;;;;;;;2.42;1.50;;;;;;;;;;5114950;28;20191;-58
2022/01/10 10:37:00;;;;;;;1.85;1.55;;;;;;;;;;5115037;28;20190;-58
2022/01/10 10:39:29;;;;;;;1.60;1.50;;;;;;;;;;5114523;28;20195;-58
2022/01/10 10:41:57;;;;;;;1.95;1.70;;;;;;;;;;5114478;28;20207;-58
2022/01/10 10:44:24;;;;;;;1.88;1.55;;;;;;;;;;5115441;28;20252;-59
2022/01/10 10:46:52;;;;;;;2.08;1.30;;;;;;;;;;5114634;28;20237;-58
2022/01/10 10:49:21;;;;;;;1.40;1.30;;;;;;;;;;5114731;28;20195;-58
2022/01/10 10:51:49;;;;;;;1.70;1.60;;;;;;;;;;5114034;28;20191;-58
2022/01/10 10:54:17;;;;;;;1.90;1.60;;;;;;;;;;5114431;28;20194;-59
2022/01/10 10:56:46;;;;;;;2.50;1.40;;;;;;;;;;5113749;28;20244;-58
2022/01/10 10:59:14;;;;;;;1.80;1.50;;;;;;;;;;5114438;28;20207;-58
2022/01/10 11:01:43;;;;;;;1.52;1.40;;;;;;;;;;5113238;28;20191;-58
2022/01/10 11:04:12;;;;;;;1.60;1.50;;;;;;;;;;5114367;28;20202;-58
2022/01/10 11:06:40;;;;;;;3.17;1.40;;;;;;;;;;5114371;28;20199;-59
2022/01/10 11:09:12;;;;;;;1.73;1.60;;;;;;;;;;5116749;28;20717;-59
2022/01/10 11:11:39;;;;;;;1.70;1.40;;;;;;;;;;5134012;28;20218;-58
2022/01/10 11:14:09;;;;;;;1.60;1.38;;;;;;;;;;5133502;28;20222;-58
2022/01/10 11:16:37;;;;;;;1.67;1.38;;;;;;;;;;5132528;28;20187;-59
2022/01/10 11:19:12;;;;;;;2.08;1.67;;;;;;;;;;5134154;28;20202;-59
2022/01/10 11:21:41;;;;;;;1.70;1.33;;;;;;;;;;5137012;27;20189;-58
2022/01/10 11:24:08;;;;;;;1.35;1.23;;;;;;;;;;5127234;27;20270;-58
2022/01/10 11:26:40;;;;;;;2.13;1.65;;;;;;;;;;5123934;27;20194;-58
2022/01/10 11:29:10;;;;;;;1.35;1.25;;;;;;;;;;5136026;27;20209;-59
2022/01/10 11:31:39;;;;;;;1.85;1.67;;;;;;;;;;5117557;27;20318;-59
2022/01/10 11:34:06;;;;;;;1.60;1.42;;;;;;;;;;5118261;28;20203;-59
2022/01/10 11:36:34;;;;;;;1.50;1.40;;;;;;;;;;5129107;27;20202;-59
2022/01/10 11:39:02;;;;;;;2.08;1.30;;;;;;;;;;5131362;27;20199;-59
2022/01/10 11:41:31;;;;;;;1.70;1.38;;;;;;;;;;5126550;27;20201;-59
2022/01/10 11:44:03;;;;;;;1.40;1.30;;;;;;;;;;5124497;27;20199;-59
2022/01/10 11:46:35;;;;;;;1.42;1.20;;;;;;;;;;5132730;27;20198;-59
2022/01/10 11:49:03;;;;;;;1.73;1.40;;;;;;;;;;5116870;27;20195;-59
2022/01/10 11:51:32;;;;;;;1.50;1.40;;;;;;;;;;5123951;27;20250;-58
2022/01/10 11:54:02;;;;;;;1.58;1.20;;;;;;;;;;5116936;27;20260;-58
2022/01/10 11:56:31;;;;;;;2.08;1.35;;;;;;;;;;5117877;27;20468;-59
2022/01/10 11:59:09;;;;;;;1.75;1.35;;;;;;;;;;5116562;27;20195;-59
2022/01/10 12:01:39;;;;;;;2.25;1.60;;;;;;;;;;5116615;28;20702;-58
2022/01/10 12:04:06;;;;;;;2.03;1.10;;;;;;;;;;5117226;27;20234;-58
2022/01/10 12:06:34;;;;;;;1.88;1.70;;;;;;;;;;5115765;28;20199;-58
2022/01/10 12:09:01;;;;;;;3.13;2.50;;;;;;;;;;5115641;27;20231;-58
2022/01/10 12:11:30;;;;;;;3.85;2.50;;;;;;;;;;5116071;28;20897;-58
2022/01/10 12:13:59;;;;;;;91.47;82.97;;;;;;;;;;5116194;28;20199;-58
2022/01/10 12:16:27;;;;;;;63.22;57.42;;;;;;;;;;5113326;28;20207;-59
2022/01/10 12:18:56;;;;;;;48.65;44.25;;;;;;;;;;5096045;28;20207;-59
2022/01/10 12:21:24;;;;;;;45.97;41.65;;;;;;;;;;5104327;28;20226;-59
2022/01/10 12:23:52;;;;;;;40.35;36.83;;;;;;;;;;5113420;28;20226;-58
2022/01/10 12:26:21;;;;;;;38.60;35.15;;;;;;;;;;5116409;28;20629;-58
2022/01/10 12:28:50;;;;;;;35.78;32.47;;;;;;;;;;5116224;28;20223;-58
2022/01/10 12:31:18;;;;;;;33.05;30.13;;;;;;;;;;5115611;28;20614;-58
2022/01/10 12:33:46;;;;;;;32.00;29.20;;;;;;;;;;5116190;28;20210;-57
2022/01/10 12:36:14;;;;;;;29.98;27.17;;;;;;;;;;5116736;28;20289;-58
2022/01/10 12:38:42;;;;;;;27.58;25.17;;;;;;;;;;5115704;28;20485;-58
2022/01/10 12:41:10;;;;;;;27.92;25.35;;;;;;;;;;5115990;28;20194;-58
2022/01/10 12:43:37;;;;;;;26.65;24.25;;;;;;;;;;5115927;28;20202;-58
2022/01/10 12:46:05;;;;;;;26.30;23.95;;;;;;;;;;5116028;28;20199;-58
2022/01/10 12:48:32;;;;;;;24.55;22.30;;;;;;;;;;5115400;28;20191;-58
2022/01/10 12:50:59;;;;;;;23.77;21.65;;;;;;;;;;5116188;28;20239;-58
2022/01/10 12:53:28;;;;;;;32.83;29.50;;;;;;;;;;5115412;28;20199;-58
2022/01/10 12:55:57;;;;;;;52.00;46.38;;;;;;;;;;5115463;28;20195;-58
2022/01/10 12:58:24;;;;;;;41.78;37.47;;;;;;;;;;5114740;28;20195;-58
2022/01/10 13:00:51;;;;;;;37.45;33.40;;;;;;;;;;5114338;28;20198;-58
2022/01/10 13:03:19;;;;;;;36.00;32.35;;;;;;;;;;5115070;28;20575;-58
2022/01/10 13:05:47;;;;;;;34.08;30.60;;;;;;;;;;5116328;28;20614;-58
2022/01/10 13:08:15;;;;;;;32.45;29.15;;;;;;;;;;5114709;28;20246;-58
2022/01/10 13:10:52;;;;;;;32.25;28.85;;;;;;;;;;5134465;27;20651;-58
2022/01/10 13:13:23;;;;;;;29.85;26.80;;;;;;;;;;5120896;27;20194;-58
2022/01/10 13:15:50;;;;;;;28.27;25.40;;;;;;;;;;5135776;27;20620;-58
2022/01/10 13:18:19;;;;;;;26.65;23.73;;;;;;;;;;5135923;27;20194;-58
2022/01/10 13:20:55;;;;;;;25.58;22.92;;;;;;;;;;5137015;27;20245;-58
2022/01/10 13:23:24;;;;;;;25.17;22.58;;;;;;;;;;5136161;27;20197;-57
2022/01/10 13:25:55;;;;;;;23.48;21.10;;;;;;;;;;5136050;27;20198;-58
2022/01/10 13:28:22;;;;;;;22.80;20.50;;;;;;;;;;5136372;27;20285;-58
2022/01/10 13:30:51;;;;;;;21.08;18.98;;;;;;;;;;5135642;27;20214;-58
2022/01/10 13:33:20;;;;;;;20.15;18.25;;;;;;;;;;5134105;27;20210;-58
2022/01/10 13:35:55;;;;;;;19.58;17.55;;;;;;;;;;5135842;27;20263;-58
2022/01/10 13:38:26;;;;;;;19.52;17.55;;;;;;;;;;5134728;27;20689;-58
2022/01/10 13:40:57;;;;;;;18.00;16.20;;;;;;;;;;5135775;27;20198;-58
2022/01/10 13:43:26;;;;;;;17.63;15.82;;;;;;;;;;5135257;27;20593;-58
2022/01/10 13:45:55;;;;;;;16.42;14.68;;;;;;;;;;5135782;27;20217;-58
2022/01/10 13:48:23;;;;;;;16.10;14.43;;;;;;;;;;5134465;27;20202;-58
2022/01/10 13:50:51;;;;;;;15.02;13.55;;;;;;;;;;5134675;27;20221;-58
2022/01/10 13:53:27;;;;;;;14.13;12.73;;;;;;;;;;5135493;27;20194;-58
2022/01/10 13:56:10;;;;;;;14.88;13.23;;;;;;;;;;5135842;27;20198;-58
2022/01/10 13:58:40;;;;;;;14.05;12.63;;;;;;;;;;5134995;27;20194;-59
2022/01/10 14:01:07;;;;;;;13.20;11.77;;;;;;;;;;5134741;27;20293;-58
2022/01/10 14:03:35;;;;;;;13.35;12.00;;;;;;;;;;5132866;27;20213;-58
2022/01/10 14:06:06;;;;;;;13.23;11.80;;;;;;;;;;5131312;27;20199;-58
2022/01/10 14:08:34;;;;;;;12.23;10.98;;;;;;;;;;5133339;27;20214;-58
2022/01/10 14:11:02;;;;;;;11.80;10.60;;;;;;;;;;5135600;27;20229;-59
2022/01/10 14:13:32;;;;;;;11.95;10.77;;;;;;;;;;5135299;27;20202;-58
2022/01/10 14:16:00;;;;;;;11.60;10.48;;;;;;;;;;5134629;27;20202;-58
2022/01/10 14:18:27;;;;;;;11.25;10.13;;;;;;;;;;5134371;27;20187;-58
2022/01/10 14:20:54;;;;;;;11.30;9.90;;;;;;;;;;5134735;27;20198;-58
2022/01/10 14:23:22;;;;;;;10.88;9.65;;;;;;;;;;5134044;27;20199;-58
2022/01/10 14:25:49;;;;;;;9.98;8.80;;;;;;;;;;5135105;27;20197;-58
2022/01/10 14:28:16;;;;;;;9.95;8.82;;;;;;;;;;5135250;27;20198;-58
2022/01/10 14:30:45;;;;;;;11.15;8.98;;;;;;;;;;5135152;27;20589;-58
2022/01/10 14:33:13;;;;;;;8.52;7.72;;;;;;;;;;5117845;28;20199;-59
2022/01/10 14:35:40;;;;;;;8.93;8.10;;;;;;;;;;5135367;28;20194;-58
2022/01/10 14:38:07;;;;;;;9.55;8.13;;;;;;;;;;5135278;28;20198;-58
2022/01/10 14:40:35;;;;;;;9.48;7.57;;;;;;;;;;5134453;28;20736;-58
2022/01/10 14:43:02;;;;;;;7.97;7.22;;;;;;;;;;5134667;28;20197;-58
2022/01/10 14:45:29;;;;;;;7.60;6.85;;;;;;;;;;5133925;28;20198;-58
2022/01/10 14:47:58;;;;;;;7.63;6.72;;;;;;;;;;5134621;28;20202;-59
2022/01/10 14:50:26;;;;;;;7.75;6.95;;;;;;;;;;5134197;28;20198;-58